Time;durP1;ratioP1;P1;durP2;ratioP2;P2;SDS_P1;SDS_P2;PMS_P1;PMS_P2;Temp;Humidity;BMP_temperature;BMP_pressure;BME280_temperature;BME280_humidity;BME280_pressure;Samples;Min_cycle;Max_cycle;Signal;HPM_P1;HPM_P2
2023/02/07 00:00:34;;;;;;;6.03;2.30;;;20.80;33.90;;;;;;5064130;28;20020;-49
2023/02/07 00:03:00;;;;;;;4.95;2.78;;;20.80;33.90;;;;;;5064803;28;20037;-50
2023/02/07 00:05:27;;;;;;;5.65;2.50;;;20.80;33.90;;;;;;5064749;28;20063;-51
2023/02/07 00:07:53;;;;;;;5.95;2.55;;;20.80;33.90;;;;;;5058255;28;20039;-52
2023/02/07 00:10:19;;;;;;;6.60;2.70;;;20.80;33.90;;;;;;5063791;28;20024;-53
2023/02/07 00:12:45;;;;;;;7.32;2.90;;;20.80;33.90;;;;;;5058993;28;20150;-53
2023/02/07 00:15:11;;;;;;;7.22;2.75;;;20.80;33.90;;;;;;5060425;28;20346;-49
2023/02/07 00:17:36;;;;;;;8.43;2.90;;;20.80;33.90;;;;;;5040032;28;20723;-50
2023/02/07 00:20:04;;;;;;;5.38;2.53;;;20.70;33.80;;;;;;5057050;28;20028;-50
2023/02/07 00:22:31;;;;;;;7.03;2.35;;;20.70;33.80;;;;;;5062916;28;20064;-50
2023/02/07 00:24:56;;;;;;;5.90;2.58;;;20.70;33.80;;;;;;5059855;28;20458;-52
2023/02/07 00:27:22;;;;;;;5.45;2.58;;;20.70;33.80;;;;;;5061221;28;20052;-52
2023/02/07 00:29:48;;;;;;;5.40;2.72;;;20.70;33.80;;;;;;5040384;28;20578;-47
2023/02/07 00:32:14;;;;;;;5.53;2.40;;;20.70;33.80;;;;;;5039609;28;20040;-53
2023/02/07 00:34:41;;;;;;;7.68;2.72;;;20.70;33.80;;;;;;5040550;28;20029;-52
2023/02/07 00:37:07;;;;;;;4.82;2.22;;;20.70;33.80;;;;;;5047036;28;20117;-50
2023/02/07 00:39:33;;;;;;;6.65;2.40;;;20.70;33.80;;;;;;5061564;28;20332;-49
2023/02/07 00:41:59;;;;;;;5.30;2.38;;;20.70;33.80;;;;;;5038667;28;20049;-50
2023/02/07 00:44:26;;;;;;;6.43;2.50;;;20.70;33.80;;;;;;5063311;28;20020;-52
2023/02/07 00:46:51;;;;;;;6.13;2.67;;;20.70;33.70;;;;;;5064214;28;20021;-51
2023/02/07 00:49:17;;;;;;;6.22;2.75;;;20.60;33.70;;;;;;5048079;28;20032;-50
2023/02/07 00:51:43;;;;;;;5.50;2.53;;;20.60;33.70;;;;;;5058416;28;20111;-52
2023/02/07 00:54:09;;;;;;;4.03;2.47;;;20.60;33.70;;;;;;5058544;28;20147;-53
2023/02/07 00:56:35;;;;;;;6.30;2.70;;;20.60;33.60;;;;;;5059770;28;20158;-48
2023/02/07 00:59:01;;;;;;;5.55;2.80;;;20.60;33.60;;;;;;5058192;28;20028;-53
2023/02/07 01:01:27;;;;;;;5.13;2.53;;;20.60;33.60;;;;;;5057453;28;20051;-51
2023/02/07 01:03:55;;;;;;;8.88;2.92;;;20.60;33.70;;;;;;5043006;28;20021;-51
2023/02/07 01:06:22;;;;;;;5.97;2.58;;;20.60;33.70;;;;;;5054872;28;20031;-51
2023/02/07 01:08:48;;;;;;;5.25;2.75;;;20.50;33.60;;;;;;5060691;28;20037;-51
2023/02/07 01:11:15;;;;;;;5.47;2.92;;;20.50;33.60;;;;;;5041632;28;20375;-52
2023/02/07 01:13:43;;;;;;;6.72;2.85;;;20.60;33.60;;;;;;5056976;28;20080;-52
2023/02/07 01:16:27;;;;;;;6.55;2.80;;;20.50;33.60;;;;;;5058186;28;20475;-51
2023/02/07 01:18:53;;;;;;;6.25;3.05;;;20.50;33.50;;;;;;5054846;28;20059;-52
2023/02/07 01:21:23;;;;;;;4.82;2.42;;;20.50;33.50;;;;;;5036164;28;20025;-48
2023/02/07 01:23:50;;;;;;;5.97;3.00;;;20.50;33.60;;;;;;5054909;28;20371;-53
2023/02/07 01:26:16;;;;;;;4.13;2.42;;;20.50;33.50;;;;;;5040101;28;20044;-52
2023/02/07 01:28:42;;;;;;;4.95;2.40;;;20.50;33.50;;;;;;5060440;28;20039;-47
2023/02/07 01:31:10;;;;;;;8.52;3.30;;;20.50;33.50;;;;;;5060206;28;20040;-49
2023/02/07 01:33:36;;;;;;;6.35;2.42;;;20.50;33.50;;;;;;5060699;28;20448;-48
2023/02/07 01:36:11;;;;;;;5.03;2.53;;;20.50;33.50;;;;;;5038432;28;20025;-49
2023/02/07 01:38:37;;;;;;;6.82;2.90;;;20.50;33.50;;;;;;5038706;28;20376;-52
2023/02/07 01:41:05;;;;;;;5.75;2.97;;;20.50;33.50;;;;;;5060753;28;20035;-50
2023/02/07 01:43:31;;;;;;;5.13;2.67;;;20.40;33.40;;;;;;5041191;28;20025;-54
2023/02/07 01:45:57;;;;;;;5.25;2.53;;;20.50;33.40;;;;;;5059932;28;20029;-52
2023/02/07 01:48:32;;;;;;;6.72;2.80;;;20.40;33.40;;;;;;5064100;28;20107;-50
2023/02/07 01:51:02;;;;;;;;;;;20.40;33.30;;;;;;5038316;28;20028;-52
2023/02/07 01:53:31;;;;;;;6.55;3.13;;;20.40;33.30;;;;;;5044502;28;19912;-53
2023/02/07 01:56:03;;;;;;;5.68;2.60;;;20.40;33.30;;;;;;5058113;28;20124;-52
2023/02/07 01:58:31;;;;;;;5.40;2.65;;;20.40;33.30;;;;;;5042887;28;20025;-54
2023/02/07 02:01:00;;;;;;;5.75;2.75;;;20.40;33.30;;;;;;5042990;28;20033;-53
2023/02/07 02:03:26;;;;;;;4.82;2.70;;;20.40;33.20;;;;;;5055319;28;20051;-52
2023/02/07 02:05:53;;;;;;;4.70;2.60;;;20.40;33.20;;;;;;5044646;28;20025;-50
2023/02/07 02:08:21;;;;;;;4.15;2.58;;;20.40;33.20;;;;;;5060762;28;20023;-51
2023/02/07 02:11:07;;;;;;;5.07;2.78;;;20.30;33.10;;;;;;5063247;28;20025;-49
2023/02/07 02:13:48;;;;;;;5.88;2.90;;;20.40;33.10;;;;;;5058684;28;20052;-51
2023/02/07 02:16:26;;;;;;;4.50;2.50;;;20.30;33.10;;;;;;5060271;28;20041;-50
2023/02/07 02:19:22;;;;;;;5.32;3.00;;;20.30;33.30;;;;;;5060433;28;20115;-51
2023/02/07 02:22:23;;;;;;;5.22;2.95;;;20.30;33.20;;;;;;5060305;28;20417;-51
2023/02/07 02:25:07;;;;;;;4.97;2.67;;;20.30;33.20;;;;;;5058960;28;20460;-53
2023/02/07 02:28:05;;;;;;;4.03;2.60;;;20.30;33.10;;;;;;5045676;28;20024;-52
2023/02/07 02:30:45;;;;;;;4.15;2.72;;;20.30;33.10;;;;;;5041041;28;20456;-54
2023/02/07 02:33:26;;;;;;;5.53;2.80;;;20.30;33.10;;;;;;5059014;28;20029;-53
2023/02/07 02:35:51;;;;;;;6.03;2.92;;;20.30;33.10;;;;;;5041688;28;20029;-53
2023/02/07 02:38:50;;;;;;;4.85;2.58;;;20.30;33.10;;;;;;5036549;28;20025;-53
2023/02/07 02:41:30;;;;;;;4.25;2.40;;;20.20;33.00;;;;;;5041842;28;20032;-52
2023/02/07 02:44:02;;;;;;;5.15;2.50;;;20.20;33.00;;;;;;5029925;28;20368;-53
2023/02/07 02:46:35;;;;;;;4.10;2.28;;;20.20;33.00;;;;;;5042563;28;20467;-52
2023/02/07 02:49:05;;;;;;;6.13;3.08;;;20.20;32.90;;;;;;5045759;28;20048;-50
2023/02/07 02:51:31;;;;;;;4.82;3.00;;;20.20;32.90;;;;;;5039884;28;20352;-53
2023/02/07 02:53:59;;;;;;;5.60;3.08;;;20.20;32.90;;;;;;5041592;28;20112;-51
2023/02/07 02:56:48;;;;;;;4.72;2.78;;;20.20;32.90;;;;;;5042702;28;20379;-52
2023/02/07 02:59:48;;;;;;;5.60;2.92;;;20.20;32.80;;;;;;5044099;28;20032;-51
2023/02/07 03:02:18;;;;;;;4.20;2.60;;;20.20;32.80;;;;;;5046012;28;20044;-50
2023/02/07 03:05:07;;;;;;;5.35;2.70;;;20.20;32.70;;;;;;5060786;28;20028;-50
2023/02/07 03:07:53;;;;;;;5.78;3.03;;;20.20;32.70;;;;;;5040313;28;20452;-51
2023/02/07 03:10:37;;;;;;;6.25;2.90;;;20.20;32.70;;;;;;5043435;28;20028;-51
2023/02/07 03:13:13;;;;;;;5.75;3.17;;;20.10;33.40;;;;;;5062743;28;20440;-52
2023/02/07 03:15:50;;;;;;;5.95;3.08;;;20.20;32.80;;;;;;5060297;28;20029;-51
2023/02/07 03:18:28;;;;;;;4.00;2.38;;;20.10;32.70;;;;;;5060149;28;20044;-50
2023/02/07 03:21:16;;;;;;;4.82;2.88;;;20.10;32.70;;;;;;5039946;28;20067;-53
2023/02/07 03:23:45;;;;;;;6.00;2.88;;;20.10;32.70;;;;;;5060912;28;20024;-53
2023/02/07 03:26:13;;;;;;;4.68;2.83;;;20.10;32.60;;;;;;5061412;28;20070;-50
2023/02/07 03:28:41;;;;;;;6.32;3.05;;;20.10;32.60;;;;;;5061991;28;20063;-52
2023/02/07 03:31:11;;;;;;;4.95;2.70;;;20.10;32.60;;;;;;5043017;28;20032;-53
2023/02/07 03:33:38;;;;;;;5.80;2.92;;;20.10;32.50;;;;;;5056434;28;20051;-51
2023/02/07 03:36:07;;;;;;;4.28;2.60;;;20.00;32.40;;;;;;5059125;28;20086;-50
2023/02/07 03:38:34;;;;;;;4.22;2.50;;;20.10;32.50;;;;;;5062411;28;20086;-51
2023/02/07 03:41:06;;;;;;;5.95;3.03;;;20.10;32.50;;;;;;5058757;28;20352;-50
2023/02/07 03:43:33;;;;;;;4.88;2.60;;;20.10;32.40;;;;;;5060743;28;20055;-49
2023/02/07 03:45:59;;;;;;;3.83;2.58;;;20.10;32.40;;;;;;5058002;28;20047;-46
2023/02/07 03:48:25;;;;;;;4.50;2.35;;;20.10;32.40;;;;;;5060537;28;20021;-47
2023/02/07 03:50:51;;;;;;;4.75;2.90;;;20.10;32.40;;;;;;5063921;28;20021;-48
2023/02/07 03:53:19;;;;;;;6.05;3.13;;;20.00;32.30;;;;;;5063043;28;20033;-51
2023/02/07 03:55:45;;;;;;;5.97;3.03;;;20.00;32.30;;;;;;5057915;28;20032;-50
2023/02/07 03:58:11;;;;;;;5.30;2.60;;;20.00;32.20;;;;;;5058981;28;20029;-52
2023/02/07 04:00:37;;;;;;;5.47;2.55;;;20.00;32.20;;;;;;5060171;28;20033;-51
2023/02/07 04:03:04;;;;;;;4.25;2.38;;;20.00;32.20;;;;;;5062831;28;20062;-49
2023/02/07 04:05:30;;;;;;;5.20;2.78;;;20.00;32.20;;;;;;5040456;28;20024;-49
2023/02/07 04:07:56;;;;;;;5.38;2.83;;;20.00;32.20;;;;;;5061331;28;20020;-51
2023/02/07 04:10:22;;;;;;;6.05;3.20;;;20.00;32.20;;;;;;5061933;28;20334;-50
2023/02/07 04:12:47;;;;;;;4.57;2.60;;;20.00;32.10;;;;;;5056264;28;20435;-51
2023/02/07 04:15:13;;;;;;;4.32;2.42;;;20.00;32.10;;;;;;5064159;28;20045;-49
2023/02/07 04:17:39;;;;;;;4.63;2.90;;;20.00;32.10;;;;;;5041790;28;20028;-51
2023/02/07 04:20:06;;;;;;;5.40;2.95;;;20.00;32.00;;;;;;5058805;28;20025;-50
2023/02/07 04:22:32;;;;;;;4.47;2.95;;;19.90;32.00;;;;;;5058304;28;20047;-52
2023/02/07 04:24:58;;;;;;;5.15;2.78;;;19.90;32.00;;;;;;5055647;28;20093;-52
2023/02/07 04:27:24;;;;;;;5.35;2.58;;;19.90;32.00;;;;;;5059192;28;20115;-49
2023/02/07 04:29:50;;;;;;;4.22;2.45;;;19.90;31.90;;;;;;5059607;28;20035;-50
2023/02/07 04:32:16;;;;;;;3.90;2.47;;;19.90;31.90;;;;;;5058612;28;20158;-52
2023/02/07 04:34:42;;;;;;;3.60;2.38;;;19.90;31.90;;;;;;5059060;28;20028;-50
2023/02/07 04:37:07;;;;;;;4.50;2.70;;;19.90;31.90;;;;;;5059184;28;20790;-50
2023/02/07 04:39:33;;;;;;;4.57;2.53;;;19.90;31.90;;;;;;5060547;28;20185;-51
2023/02/07 04:41:59;;;;;;;4.43;2.75;;;19.90;31.90;;;;;;5058837;28;20124;-53
2023/02/07 04:44:25;;;;;;;4.38;2.88;;;19.90;31.90;;;;;;5055326;28;20033;-54
2023/02/07 04:46:51;;;;;;;3.88;2.60;;;19.90;31.90;;;;;;5057011;28;20166;-51
2023/02/07 04:49:20;;;;;;;4.80;2.75;;;19.90;31.80;;;;;;5060825;28;20028;-51
2023/02/07 04:51:46;;;;;;;4.10;2.55;;;19.90;31.80;;;;;;5062378;28;20111;-48
2023/02/07 04:54:12;;;;;;;3.85;2.35;;;19.90;31.80;;;;;;5059561;28;20029;-53
2023/02/07 04:56:38;;;;;;;5.47;2.80;;;19.90;31.80;;;;;;5056853;28;20098;-48
2023/02/07 04:59:04;;;;;;;4.95;2.80;;;19.80;31.70;;;;;;5044039;28;20107;-52
2023/02/07 05:01:30;;;;;;;5.28;2.88;;;19.80;31.70;;;;;;5044191;28;20482;-50
2023/02/07 05:03:55;;;;;;;4.25;2.67;;;19.80;31.70;;;;;;5045043;28;20395;-50
2023/02/07 05:06:21;;;;;;;4.07;2.50;;;19.80;31.60;;;;;;5060570;28;20090;-50
2023/02/07 05:08:47;;;;;;;4.30;2.35;;;19.80;31.60;;;;;;5062871;28;20040;-50
2023/02/07 05:11:13;;;;;;;4.85;2.20;;;19.80;31.50;;;;;;5058084;28;20024;-46
2023/02/07 05:13:39;;;;;;;3.65;2.50;;;19.80;31.60;;;;;;5060491;28;20482;-49
2023/02/07 05:16:05;;;;;;;5.10;2.60;;;19.80;31.60;;;;;;5054419;28;20083;-52
2023/02/07 05:18:31;;;;;;;4.30;2.65;;;19.80;31.50;;;;;;5059607;28;20025;-50
2023/02/07 05:20:58;;;;;;;4.63;2.55;;;19.80;31.50;;;;;;5062294;28;20110;-53
2023/02/07 05:23:24;;;;;;;4.07;2.47;;;19.80;31.50;;;;;;5059752;28;20032;-52
2023/02/07 05:25:50;;;;;;;3.92;2.40;;;19.80;31.50;;;;;;5039364;28;20035;-47
2023/02/07 05:28:15;;;;;;;3.70;2.50;;;19.80;31.50;;;;;;5055403;28;20421;-51
2023/02/07 05:30:41;;;;;;;4.78;2.63;;;19.80;31.50;;;;;;5061060;28;20053;-53
2023/02/07 05:33:08;;;;;;;3.67;2.40;;;19.70;31.50;;;;;;5058528;28;20037;-53
2023/02/07 05:35:40;;;;;;;3.00;2.50;;;19.70;31.50;;;;;;5058226;28;20040;-51
2023/02/07 05:38:09;;;;;;;3.90;2.58;;;19.70;31.50;;;;;;5062816;28;20034;-49
2023/02/07 05:40:37;;;;;;;4.57;2.40;;;19.70;31.50;;;;;;5062036;28;20027;-48
2023/02/07 05:43:03;;;;;;;5.05;2.40;;;19.70;31.50;;;;;;5063439;28;20041;-51
2023/02/07 05:45:29;;;;;;;4.13;2.35;;;19.70;31.50;;;;;;5066616;28;20024;-51
2023/02/07 05:47:55;;;;;;;4.53;2.63;;;19.70;31.50;;;;;;5062219;28;20029;-49
2023/02/07 05:50:22;;;;;;;3.80;2.28;;;19.70;31.50;;;;;;5065058;28;20361;-52
2023/02/07 05:52:48;;;;;;;3.63;2.30;;;19.70;31.50;;;;;;5045891;28;20029;-49
2023/02/07 05:55:14;;;;;;;3.80;2.60;;;19.70;31.50;;;;;;5059806;28;20040;-53
2023/02/07 05:57:41;;;;;;;4.65;2.58;;;19.70;31.40;;;;;;5059309;28;20036;-50
2023/02/07 06:00:11;;;;;;;5.22;2.85;;;19.70;31.40;;;;;;5064910;28;20072;-51
2023/02/07 06:02:41;;;;;;;4.80;2.80;;;19.70;31.40;;;;;;5061117;28;20131;-52
2023/02/07 06:05:09;;;;;;;3.13;2.28;;;19.70;31.40;;;;;;5064811;28;20021;-51
2023/02/07 06:07:35;;;;;;;4.45;2.67;;;19.70;31.40;;;;;;5043487;28;20020;-51
2023/02/07 06:10:04;;;;;;;3.83;2.35;;;19.70;31.40;;;;;;5062061;28;20036;-52
2023/02/07 06:12:30;;;;;;;5.38;2.50;;;19.60;31.30;;;;;;5046168;28;20370;-50
2023/02/07 06:14:56;;;;;;;3.70;2.25;;;19.70;31.50;;;;;;5059143;28;20051;-52
2023/02/07 06:17:22;;;;;;;3.03;2.00;;;19.60;31.40;;;;;;5061685;28;20440;-52
2023/02/07 06:19:48;;;;;;;3.47;2.13;;;19.60;31.40;;;;;;5060314;28;20028;-51
2023/02/07 06:22:14;;;;;;;4.22;2.50;;;19.60;31.40;;;;;;5061972;28;20062;-51
2023/02/07 06:24:40;;;;;;;5.00;2.65;;;19.60;31.40;;;;;;5064630;28;20115;-53
2023/02/07 06:27:06;;;;;;;4.10;2.38;;;19.60;31.40;;;;;;5060539;28;20441;-53
2023/02/07 06:29:32;;;;;;;4.78;2.70;;;19.60;31.40;;;;;;5067394;28;20033;-52
2023/02/07 06:31:57;;;;;;;4.63;2.70;;;19.60;31.40;;;;;;5065118;28;20036;-53
2023/02/07 06:34:23;;;;;;;3.65;2.33;;;19.60;31.40;;;;;;5057922;28;20024;-53
2023/02/07 06:36:49;;;;;;;3.80;2.55;;;19.60;31.40;;;;;;5064487;28;20356;-49
2023/02/07 06:39:15;;;;;;;4.78;3.05;;;19.60;31.40;;;;;;5061306;28;20340;-52
2023/02/07 06:41:41;;;;;;;4.70;2.90;;;19.60;31.40;;;;;;5066369;28;20505;-52
2023/02/07 06:44:07;;;;;;;3.92;2.75;;;19.60;31.40;;;;;;5055891;28;20021;-53
2023/02/07 06:46:33;;;;;;;3.60;2.15;;;19.60;31.40;;;;;;5058237;28;20146;-52
2023/02/07 06:48:59;;;;;;;4.20;2.45;;;19.60;31.40;;;;;;5055821;28;20033;-52
2023/02/07 06:51:24;;;;;;;4.03;2.63;;;19.60;31.40;;;;;;5059890;28;20046;-49
2023/02/07 06:53:50;;;;;;;4.50;2.33;;;19.60;31.30;;;;;;5064256;28;20028;-53
2023/02/07 06:56:16;;;;;;;4.90;2.67;;;19.50;31.30;;;;;;5059129;28;20020;-50
2023/02/07 06:58:42;;;;;;;6.70;3.22;;;19.50;31.30;;;;;;5060607;28;20033;-48
2023/02/07 07:01:08;;;;;;;4.22;2.55;;;19.50;31.30;;;;;;5058277;28;20134;-52
2023/02/07 07:03:34;;;;;;;3.88;2.33;;;19.50;31.30;;;;;;5059248;28;20037;-52
2023/02/07 07:06:00;;;;;;;4.70;2.80;;;19.50;31.30;;;;;;5056497;28;20036;-52
2023/02/07 07:08:26;;;;;;;3.45;2.55;;;19.50;31.30;;;;;;5028767;28;20348;-52
2023/02/07 07:10:53;;;;;;;3.78;2.30;;;19.50;31.30;;;;;;5059323;28;20091;-52
2023/02/07 07:13:19;;;;;;;3.28;2.30;;;19.50;31.40;;;;;;5060211;28;20063;-52
2023/02/07 07:15:46;;;;;;;2.88;1.98;;;19.50;31.30;;;;;;5066156;28;20025;-52
2023/02/07 07:18:12;;;;;;;3.00;2.20;;;19.50;31.30;;;;;;5059984;28;20036;-52
2023/02/07 07:20:37;;;;;;;5.07;3.00;;;19.50;31.40;;;;;;5057145;28;20037;-51
2023/02/07 07:23:03;;;;;;;4.75;2.75;;;19.40;31.40;;;;;;5042309;28;20047;-52
2023/02/07 07:25:29;;;;;;;5.40;2.70;;;19.50;31.30;;;;;;5056158;28;20029;-51
2023/02/07 07:27:56;;;;;;;4.25;2.53;;;19.40;31.20;;;;;;5055971;28;20032;-53
2023/02/07 07:30:22;;;;;;;4.30;2.50;;;19.50;31.10;;;;;;5055648;28;20035;-54
2023/02/07 07:32:48;;;;;;;4.13;2.50;;;19.50;31.20;;;;;;5057570;28;20056;-53
2023/02/07 07:35:14;;;;;;;5.43;3.03;;;19.50;31.20;;;;;;5055496;28;21115;-52
2023/02/07 07:37:40;;;;;;;5.03;2.83;;;19.50;31.30;;;;;;5055118;28;20021;-50
2023/02/07 07:40:07;;;;;;;4.75;2.20;;;19.50;31.30;;;;;;5060005;28;20469;-47
2023/02/07 07:42:34;;;;;;;5.95;2.70;;;19.50;31.30;;;;;;5056291;28;20457;-48
2023/02/07 07:45:22;;;;;;;4.20;2.22;;;19.40;31.90;;;;;;5056424;28;20364;-47
2023/02/07 07:47:48;;;;;;;2.83;1.83;;;19.40;31.50;;;;;;5037396;28;20028;-51
2023/02/07 07:50:22;;;;;;;2.67;2.03;;;19.50;31.60;;;;;;5055665;28;20047;-49
2023/02/07 07:52:48;;;;;;;3.60;2.25;;;19.50;31.70;;;;;;5054175;28;20112;-51
2023/02/07 07:55:14;;;;;;;3.00;2.05;;;19.50;31.60;;;;;;5055968;28;20108;-52
2023/02/07 07:57:40;;;;;;;4.95;2.33;;;19.50;31.50;;;;;;5062634;28;20428;-49
2023/02/07 08:00:06;;;;;;;4.00;2.25;;;19.60;31.40;;;;;;5056141;28;20017;-47
2023/02/07 08:02:39;;;;;;;4.35;2.40;;;19.60;31.40;;;;;;5055575;28;20045;-53
2023/02/07 08:05:05;;;;;;;3.58;2.25;;;19.60;31.40;;;;;;5059844;28;20028;-54
2023/02/07 08:07:31;;;;;;;3.70;2.20;;;19.70;31.30;;;;;;5055501;28;20115;-54
2023/02/07 08:09:57;;;;;;;5.88;2.72;;;19.70;31.20;;;;;;5064125;28;20107;-51
2023/02/07 08:12:23;;;;;;;5.38;2.58;;;19.70;31.10;;;;;;5062471;28;20033;-52
2023/02/07 08:14:48;;;;;;;3.85;2.45;;;19.80;31.00;;;;;;5061824;28;20080;-48
2023/02/07 08:17:14;;;;;;;4.07;2.33;;;19.90;31.00;;;;;;5055203;28;20432;-53
2023/02/07 08:19:40;;;;;;;4.40;2.63;;;19.90;30.90;;;;;;5055380;28;20054;-52
2023/02/07 08:22:06;;;;;;;4.50;2.65;;;19.90;30.80;;;;;;5034123;28;20128;-49
2023/02/07 08:24:33;;;;;;;4.90;2.63;;;20.00;30.70;;;;;;5057858;28;20033;-49
2023/02/07 08:26:59;;;;;;;4.47;2.67;;;20.00;30.60;;;;;;5054640;28;20036;-54
2023/02/07 08:29:25;;;;;;;4.65;2.40;;;20.10;30.60;;;;;;5058272;28;20028;-54
2023/02/07 08:31:57;;;;;;;3.13;2.17;;;20.10;30.60;;;;;;5052048;28;20232;-52
2023/02/07 08:34:25;;;;;;;4.47;2.72;;;20.20;30.50;;;;;;5055628;28;20450;-53
2023/02/07 08:36:51;;;;;;;3.65;2.28;;;20.20;30.50;;;;;;5059744;28;20098;-48
2023/02/07 08:39:18;;;;;;;3.60;2.50;;;20.20;30.40;;;;;;5054815;28;20508;-50
2023/02/07 08:41:43;;;;;;;4.85;2.72;;;20.30;30.40;;;;;;5057039;28;20037;-51
2023/02/07 08:44:09;;;;;;;3.97;2.63;;;20.30;30.30;;;;;;5050973;28;20028;-48
2023/02/07 08:46:35;;;;;;;3.40;2.35;;;20.40;30.30;;;;;;5053512;28;20418;-54
2023/02/07 08:49:01;;;;;;;4.70;2.58;;;20.40;30.20;;;;;;5058807;28;20412;-52
2023/02/07 08:51:27;;;;;;;5.25;2.58;;;20.40;30.10;;;;;;5052672;28;20043;-50
2023/02/07 08:53:53;;;;;;;4.43;2.60;;;20.50;30.10;;;;;;5037997;28;20464;-51
2023/02/07 08:56:21;;;;;;;3.45;2.50;;;20.50;30.10;;;;;;5035481;28;20036;-48
2023/02/07 08:58:46;;;;;;;5.00;2.65;;;20.50;30.10;;;;;;5057181;28;20112;-56
2023/02/07 09:01:12;;;;;;;5.10;2.55;;;20.50;30.00;;;;;;5062885;28;20123;-49
2023/02/07 09:03:38;;;;;;;4.72;2.60;;;20.60;30.10;;;;;;5074822;28;20040;-50
2023/02/07 09:06:04;;;;;;;3.70;2.20;;;20.60;30.10;;;;;;5074947;28;20056;-52
2023/02/07 09:08:30;;;;;;;3.55;2.47;;;20.60;30.00;;;;;;5062991;28;20059;-49
2023/02/07 09:10:56;;;;;;;4.10;2.88;;;20.70;30.00;;;;;;5054281;28;20073;-53
2023/02/07 09:13:22;;;;;;;4.85;2.90;;;20.70;30.00;;;;;;5054537;28;20345;-48
2023/02/07 09:15:57;;;;;;;3.95;2.75;;;20.70;30.00;;;;;;5043896;28;20028;-53
2023/02/07 09:18:24;;;;;;;3.13;2.40;;;20.70;30.00;;;;;;5070303;28;20452;-50
2023/02/07 09:20:51;;;;;;;4.07;2.60;;;20.70;30.00;;;;;;5042918;28;20096;-52
2023/02/07 09:23:18;;;;;;;4.55;2.70;;;20.70;29.90;;;;;;5058912;28;20048;-52
2023/02/07 09:25:46;;;;;;;3.80;2.53;;;20.70;29.90;;;;;;5058639;28;20029;-52
2023/02/07 09:28:12;;;;;;;4.00;2.80;;;20.70;29.90;;;;;;5058632;28;20115;-52
2023/02/07 09:30:42;;;;;;;3.97;3.00;;;20.70;29.80;;;;;;5058758;28;20037;-51
2023/02/07 09:33:10;;;;;;;4.40;2.75;;;20.80;29.80;;;;;;5058952;28;20051;-50
2023/02/07 09:35:46;;;;;;;3.75;2.55;;;20.70;29.80;;;;;;5068166;28;20033;-49
2023/02/07 09:38:21;;;;;;;5.85;2.67;;;20.80;29.80;;;;;;5053992;28;20040;-50
2023/02/07 09:40:49;;;;;;;5.60;3.33;;;20.70;29.80;;;;;;5078421;28;20027;-51
2023/02/07 09:43:36;;;;;;;4.07;3.10;;;20.70;29.80;;;;;;5078474;28;20044;-50
2023/02/07 09:46:11;;;;;;;5.50;2.85;;;20.70;29.80;;;;;;5065573;28;20020;-49
2023/02/07 09:48:55;;;;;;;;;;;20.70;29.80;;;;;;5058453;28;20036;-52
2023/02/07 09:51:22;;;;;;;6.38;3.30;;;20.70;29.70;;;;;;5058486;28;19908;-51
2023/02/07 09:53:57;;;;;;;3.63;2.80;;;20.70;30.20;;;;;;5058398;28;20033;-52
2023/02/07 09:56:26;;;;;;;4.57;3.15;;;20.70;29.70;;;;;;5071887;28;20094;-48
2023/02/07 09:59:22;;;;;;;4.28;3.00;;;20.70;29.70;;;;;;5077997;28;20368;-50
2023/02/07 10:01:52;;;;;;;4.82;3.30;;;20.70;29.70;;;;;;5068142;28;20382;-52
2023/02/07 10:04:19;;;;;;;5.10;3.38;;;20.70;29.70;;;;;;5077712;28;20337;-53
2023/02/07 10:06:57;;;;;;;4.65;3.10;;;20.70;29.70;;;;;;5077798;28;20103;-51
2023/02/07 10:09:30;;;;;;;5.03;3.47;;;20.70;29.70;;;;;;5058968;28;20036;-51
2023/02/07 10:12:17;;;;;;;5.20;3.88;;;20.60;29.60;;;;;;5065394;28;20057;-50
2023/02/07 10:15:08;;;;;;;4.78;3.30;;;20.70;29.70;;;;;;5057900;28;20076;-50
2023/02/07 10:17:41;;;;;;;5.25;3.33;;;20.70;29.70;;;;;;5057320;28;20039;-49
2023/02/07 10:20:38;;;;;;;4.90;3.40;;;20.60;29.60;;;;;;5058039;28;20029;-51
2023/02/07 10:23:41;;;;;;;4.50;3.28;;;20.60;29.60;;;;;;5072375;28;20032;-49
2023/02/07 10:26:31;;;;;;;5.38;3.60;;;20.60;29.60;;;;;;5065146;28;20133;-50
2023/02/07 10:29:16;;;;;;;3.80;3.03;;;20.60;29.60;;;;;;5057815;28;20024;-53
2023/02/07 10:31:47;;;;;;;5.05;3.35;;;20.60;29.60;;;;;;5057789;28;20364;-52
2023/02/07 10:34:17;;;;;;;4.28;3.17;;;20.60;29.60;;;;;;5056567;28;20033;-52
2023/02/07 10:36:49;;;;;;;5.15;3.85;;;20.60;29.60;;;;;;5056892;28;20124;-52
2023/02/07 10:39:41;;;;;;;4.30;3.35;;;20.60;29.60;;;;;;5057650;28;20039;-50
2023/02/07 10:42:15;;;;;;;5.00;3.40;;;20.60;29.60;;;;;;5051992;28;20174;-54
2023/02/07 10:44:42;;;;;;;5.78;3.60;;;20.60;29.60;;;;;;5063480;28;20032;-54
2023/02/07 10:47:15;;;;;;;5.53;3.92;;;20.60;29.60;;;;;;5057496;28;20444;-54
2023/02/07 10:49:43;;;;;;;5.15;3.78;;;20.60;29.60;;;;;;5056964;28;20056;-51
2023/02/07 10:52:18;;;;;;;4.85;3.20;;;20.60;29.60;;;;;;5063071;28;20032;-52
2023/02/07 10:54:56;;;;;;;5.25;3.47;;;20.60;29.60;;;;;;5077210;28;20027;-50
2023/02/07 10:57:26;;;;;;;5.25;3.67;;;20.60;29.60;;;;;;5062134;28;20021;-53
2023/02/07 11:00:00;;;;;;;7.05;3.65;;;20.60;29.60;;;;;;5042676;28;20039;-53
2023/02/07 11:02:30;;;;;;;4.38;2.72;;;20.60;29.70;;;;;;5059958;28;20330;-51
2023/02/07 11:05:01;;;;;;;5.10;2.80;;;20.60;29.90;;;;;;5056026;28;20028;-52
2023/02/07 11:07:28;;;;;;;5.28;3.10;;;20.60;29.90;;;;;;5056215;28;20503;-51
2023/02/07 11:10:16;;;;;;;4.07;2.88;;;20.60;29.90;;;;;;5068512;28;20033;-49
2023/02/07 11:12:53;;;;;;;5.78;3.20;;;20.60;29.90;;;;;;5056614;28;20037;-52
2023/02/07 11:15:22;;;;;;;4.35;2.78;;;20.60;29.90;;;;;;5064430;28;20041;-49
2023/02/07 11:17:50;;;;;;;4.38;2.92;;;20.60;29.90;;;;;;5057901;28;20040;-52
2023/02/07 11:20:25;;;;;;;4.45;2.80;;;20.60;29.80;;;;;;5062317;28;20101;-52
2023/02/07 11:22:53;;;;;;;5.90;2.13;;;20.60;30.10;;;;;;5053324;28;20037;-49
2023/02/07 11:25:30;;;;;;;2.83;1.98;;;20.60;31.50;;;;;;5056598;28;20025;-50
2023/02/07 11:27:57;;;;;;;3.92;2.20;;;20.60;32.60;;;;;;5049819;28;20060;-52
2023/02/07 11:30:27;;;;;;;4.85;2.30;;;20.60;33.20;;;;;;5055515;28;20029;-51
2023/02/07 11:33:08;;;;;;;6.13;2.08;;;20.70;33.70;;;;;;5059301;28;20116;-56
2023/02/07 11:35:35;;;;;;;5.15;2.10;;;20.70;33.90;;;;;;5067921;28;20032;-52
2023/02/07 11:38:04;;;;;;;9.80;2.25;;;20.70;34.10;;;;;;5056993;28;20029;-51
2023/02/07 11:40:51;;;;;;;5.45;2.40;;;20.80;34.40;;;;;;5055970;28;20339;-53
2023/02/07 11:43:20;;;;;;;3.00;2.20;;;20.80;34.40;;;;;;5061983;28;21684;-55
2023/02/07 11:45:50;;;;;;;4.00;2.60;;;20.90;34.50;;;;;;5063374;28;20103;-51
2023/02/07 11:48:29;;;;;;;4.43;2.83;;;20.90;34.40;;;;;;5062489;28;20021;-56
2023/02/07 11:51:02;;;;;;;8.63;2.83;;;21.00;34.20;;;;;;5060267;28;20108;-56
2023/02/07 11:53:33;;;;;;;4.80;2.78;;;21.20;34.20;;;;;;5043063;28;20347;-58
2023/02/07 11:56:00;;;;;;;4.38;2.63;;;21.20;34.00;;;;;;5064998;28;20074;-55
2023/02/07 11:58:45;;;;;;;3.83;2.60;;;21.40;34.00;;;;;;5056988;28;20124;-51
2023/02/07 12:01:18;;;;;;;4.28;2.47;;;21.50;34.70;;;;;;5046193;28;20471;-56
2023/02/07 12:03:57;;;;;;;5.22;3.15;;;21.60;34.00;;;;;;5063233;28;20044;-54
2023/02/07 12:06:30;;;;;;;5.15;2.95;;;21.70;33.80;;;;;;5061970;28;20157;-56
2023/02/07 12:08:57;;;;;;;4.70;3.03;;;21.80;33.80;;;;;;5056897;28;20051;-56
2023/02/07 12:11:35;;;;;;;5.50;3.13;;;21.90;33.80;;;;;;5064795;28;20686;-54
2023/02/07 12:14:24;;;;;;;3.88;3.03;;;22.00;33.80;;;;;;5059761;28;20052;-57
2023/02/07 12:16:54;;;;;;;8.45;2.97;;;22.10;33.80;;;;;;5065943;28;20063;-54
2023/02/07 12:19:48;;;;;;;4.65;3.03;;;22.10;33.60;;;;;;5051481;28;20049;-54
2023/02/07 12:22:20;;;;;;;5.05;2.83;;;22.20;33.60;;;;;;5064692;28;20047;-56
2023/02/07 12:25:16;;;;;;;5.50;3.22;;;22.20;33.50;;;;;;5061839;28;20043;-55
2023/02/07 12:27:44;;;;;;;4.75;3.00;;;22.30;33.60;;;;;;5061853;28;20025;-57
2023/02/07 12:30:33;;;;;;;4.55;2.90;;;22.30;33.60;;;;;;5063776;28;20040;-56
2023/02/07 12:33:20;;;;;;;4.75;3.40;;;22.30;33.70;;;;;;5042730;28;20032;-57
2023/02/07 12:36:10;;;;;;;5.35;3.15;;;22.40;33.80;;;;;;5060033;28;20455;-56
2023/02/07 12:38:51;;;;;;;6.63;3.53;;;22.40;33.80;;;;;;5062055;28;20032;-54
2023/02/07 12:42:02;;;;;;;6.10;3.67;;;22.40;33.90;;;;;;5063617;28;20016;-56
2023/02/07 12:44:39;;;;;;;5.28;3.55;;;22.40;33.90;;;;;;5066121;28;20502;-56
2023/02/07 12:47:26;;;;;;;7.35;3.70;;;22.50;33.80;;;;;;5060097;28;20130;-55
2023/02/07 12:50:19;;;;;;;6.75;2.97;;;22.50;33.80;;;;;;5063361;28;20020;-55
2023/02/07 12:53:10;;;;;;;3.38;3.00;;;22.50;33.80;;;;;;5055961;28;20471;-56
2023/02/07 12:56:30;;;;;;;6.45;3.75;;;22.60;33.80;;;;;;5046756;28;20029;-55
2023/02/07 12:59:22;;;;;;;5.47;3.50;;;22.60;33.60;;;;;;4972087;28;20034;-57
2023/02/07 13:02:22;;;;;;;4.55;3.25;;;22.60;33.50;;;;;;5060102;28;20476;-54
2023/02/07 13:05:02;;;;;;;3.72;3.10;;;22.60;33.40;;;;;;5033669;28;20131;-55
2023/02/07 13:07:46;;;;;;;5.20;3.30;;;22.60;33.30;;;;;;5060903;28;20036;-56